createdAt,value
2023-05-02T00:00:50.787Z,8.07
2023-05-02T00:03:17.830Z,8.05
2023-05-02T00:05:44.757Z,8.03
2023-05-02T00:08:12.232Z,8.00
2023-05-02T00:10:39.236Z,7.98
2023-05-02T00:13:06.107Z,7.95
2023-05-02T00:15:32.860Z,7.93
2023-05-02T00:18:00.405Z,7.90
2023-05-02T00:20:27.279Z,7.86
2023-05-02T00:22:55.396Z,7.83
2023-05-02T00:25:22.110Z,7.81
2023-05-02T00:27:51.113Z,7.79
2023-05-02T00:30:18.753Z,7.77
2023-05-02T00:32:45.978Z,7.77
2023-05-02T00:35:13.062Z,7.76
2023-05-02T00:37:39.920Z,7.75
2023-05-02T00:40:08.207Z,7.74
2023-05-02T00:42:36.671Z,7.73
2023-05-02T00:45:07.176Z,7.69
2023-05-02T00:47:34.548Z,7.64
2023-05-02T00:50:02.822Z,7.57
2023-05-02T00:52:29.779Z,7.51
2023-05-02T00:54:56.783Z,7.46
2023-05-02T00:57:23.612Z,7.41
2023-05-02T00:59:50.390Z,7.38
2023-05-02T01:02:17.606Z,7.36
2023-05-02T01:04:53.863Z,7.34
2023-05-02T01:07:32.184Z,7.33
2023-05-02T01:10:18.246Z,7.32
2023-05-02T01:12:46.685Z,7.31
2023-05-02T01:15:17.231Z,7.30
2023-05-02T01:17:44.498Z,7.29
2023-05-02T01:20:15.272Z,7.30
2023-05-02T01:22:42.581Z,7.31
2023-05-02T01:25:28.310Z,7.29
2023-05-02T01:28:01.218Z,7.30
2023-05-02T01:30:28.437Z,7.31
2023-05-02T01:32:55.538Z,7.30
2023-05-02T01:35:22.663Z,7.30
2023-05-02T01:37:49.487Z,7.29
2023-05-02T01:40:17.929Z,7.25
2023-05-02T01:42:46.073Z,7.21
2023-05-02T01:45:12.917Z,7.18
2023-05-02T01:47:39.829Z,7.13
2023-05-02T01:50:11.457Z,7.10
2023-05-02T01:52:38.738Z,7.05
2023-05-02T01:55:06.568Z,6.99
2023-05-02T01:57:33.372Z,6.94
2023-05-02T02:00:00.655Z,6.90
2023-05-02T02:02:27.725Z,6.86
2023-05-02T02:04:55.083Z,6.84
2023-05-02T02:07:22.025Z,6.83
2023-05-02T02:09:48.885Z,6.84
2023-05-02T02:12:25.046Z,6.85
2023-05-02T02:14:56.637Z,6.88
2023-05-02T02:17:46.822Z,6.91
2023-05-02T02:20:13.738Z,6.94
2023-05-02T02:22:40.805Z,6.96
2023-05-02T02:25:08.342Z,6.97
2023-05-02T02:27:35.185Z,6.99
2023-05-02T02:30:02.342Z,7.02
2023-05-02T02:32:29.966Z,7.05
2023-05-02T02:34:56.872Z,7.09
2023-05-02T02:37:30.100Z,7.11
2023-05-02T02:40:13.516Z,7.14
2023-05-02T02:42:41.141Z,7.17
2023-05-02T02:45:11.264Z,7.19
2023-05-02T02:47:46.060Z,7.23
2023-05-02T02:50:39.346Z,7.27
2023-05-02T02:53:06.504Z,7.27
2023-05-02T02:55:36.926Z,7.31
2023-05-02T02:58:09.985Z,7.37
2023-05-02T03:00:36.788Z,7.40
2023-05-02T03:03:03.772Z,7.42
2023-05-02T03:05:30.972Z,7.44
2023-05-02T03:07:59.087Z,7.48
2023-05-02T03:10:25.900Z,7.53
2023-05-02T03:12:55.717Z,7.63
2023-05-02T03:15:42.206Z,7.79
2023-05-02T03:18:09.505Z,8.09
2023-05-02T03:20:36.321Z,8.37
2023-05-02T03:23:04.017Z,8.64
2023-05-02T03:25:30.786Z,8.87
2023-05-02T03:27:58.322Z,9.07
2023-05-02T03:30:25.496Z,9.22
2023-05-02T03:32:53.086Z,9.36
2023-05-02T03:35:20.022Z,9.49
2023-05-02T03:37:47.839Z,9.57
2023-05-02T03:40:15.026Z,9.62
2023-05-02T03:42:42.375Z,9.69
2023-05-02T03:45:17.778Z,9.75
2023-05-02T03:47:45.016Z,9.81
2023-05-02T03:50:12.420Z,9.88
2023-05-02T03:52:39.419Z,9.96
2023-05-02T03:55:07.996Z,10.04
2023-05-02T03:57:34.841Z,10.08
2023-05-02T04:04:14.173Z,10.17
2023-05-02T04:06:47.198Z,10.20
2023-05-02T04:09:14.868Z,10.25
2023-05-02T04:11:49.496Z,10.31
2023-05-02T04:14:16.510Z,10.38
2023-05-02T04:16:48.244Z,10.43
2023-05-02T04:19:18.482Z,10.48
2023-05-02T04:21:45.450Z,10.52
2023-05-02T04:24:13.360Z,10.55
2023-05-02T04:26:40.298Z,10.59
2023-05-02T04:29:10.096Z,10.64
2023-05-02T04:31:37.268Z,10.78
2023-05-02T04:34:04.523Z,11.16
2023-05-02T04:36:37.238Z,11.83
2023-05-02T04:39:07.668Z,12.48
2023-05-02T04:41:36.681Z,13.20
2023-05-02T04:44:06.461Z,13.84
2023-05-02T04:46:34.049Z,14.22
2023-05-02T04:49:00.961Z,14.34
2023-05-02T04:51:29.347Z,14.46
2023-05-02T04:53:56.806Z,14.43
2023-05-02T04:56:23.759Z,14.27
2023-05-02T04:58:50.709Z,14.09
2023-05-02T05:01:18.276Z,14.08
2023-05-02T05:03:46.646Z,14.04
2023-05-02T05:06:15.847Z,14.02
2023-05-02T05:08:45.777Z,14.10
2023-05-02T05:11:13.666Z,14.30
2023-05-02T05:13:42.180Z,14.49
2023-05-02T05:16:10.743Z,14.85
2023-05-02T05:18:41.063Z,15.53
2023-05-02T05:21:10.433Z,16.24
2023-05-02T05:23:37.715Z,16.33
2023-05-02T05:26:11.469Z,16.33
2023-05-02T05:28:40.092Z,16.31
2023-05-02T05:31:10.920Z,16.46
2023-05-02T05:33:38.763Z,16.64
2023-05-02T05:36:07.312Z,16.75
2023-05-02T05:38:35.494Z,16.74
2023-05-02T05:41:03.386Z,16.61
2023-05-02T05:43:30.431Z,16.29
2023-05-02T05:45:57.671Z,16.07
2023-05-02T05:48:27.706Z,15.90
2023-05-02T05:50:55.058Z,15.71
2023-05-02T05:53:22.004Z,15.66
2023-05-02T05:55:49.371Z,15.62
2023-05-02T05:58:16.572Z,15.58
2023-05-02T06:00:45.110Z,15.67
2023-05-02T06:03:12.486Z,15.89
2023-05-02T06:05:40.951Z,16.39
2023-05-02T06:08:07.981Z,16.53
2023-05-02T06:10:38.040Z,16.45
2023-05-02T06:13:06.772Z,16.21
2023-05-02T06:15:36.437Z,15.81
2023-05-02T06:18:05.074Z,15.88
2023-05-02T06:20:32.040Z,16.72
2023-05-02T06:23:20.115Z,17.19
2023-05-02T06:25:47.167Z,17.25
2023-05-02T06:28:14.137Z,17.24
2023-05-02T06:30:41.332Z,17.89
2023-05-02T06:33:08.141Z,18.71
2023-05-02T06:35:34.989Z,18.94
2023-05-02T06:38:01.844Z,18.97
2023-05-02T06:40:28.726Z,18.58
2023-05-02T06:42:55.921Z,18.37
2023-05-02T06:45:22.930Z,18.31
2023-05-02T06:47:50.054Z,18.12
2023-05-02T06:50:17.608Z,18.12
2023-05-02T06:52:44.406Z,18.12
2023-05-02T06:55:11.228Z,17.98
2023-05-02T06:57:38.139Z,17.75
2023-05-02T07:00:05.298Z,17.51
2023-05-02T07:02:32.403Z,16.82
2023-05-02T07:04:59.410Z,16.72
2023-05-02T07:07:26.355Z,16.80
2023-05-02T07:09:53.301Z,16.81
2023-05-02T07:12:21.011Z,17.07
2023-05-02T07:14:47.900Z,17.32
2023-05-02T07:17:15.927Z,17.54
2023-05-02T07:19:55.949Z,18.89
2023-05-02T07:22:22.778Z,19.79
2023-05-02T07:24:59.510Z,19.51
2023-05-02T07:27:26.726Z,19.49
2023-05-02T07:29:53.461Z,19.16
2023-05-02T07:32:21.832Z,18.64
2023-05-02T07:34:49.121Z,18.86
2023-05-02T07:37:15.970Z,19.38
2023-05-02T07:39:42.812Z,19.16
2023-05-02T07:42:10.186Z,18.80
2023-05-02T07:44:37.064Z,18.24
2023-05-02T07:47:03.881Z,17.21
2023-05-02T07:49:31.597Z,16.71
2023-05-02T07:51:58.491Z,16.52
2023-05-02T07:54:28.371Z,16.22
2023-05-02T07:57:02.493Z,16.27
2023-05-02T07:59:32.623Z,16.23
2023-05-02T08:01:59.579Z,15.97
2023-05-02T08:04:28.127Z,15.64
2023-05-02T08:06:55.525Z,15.81
2023-05-02T08:09:23.275Z,15.96
2023-05-02T08:11:50.139Z,16.05
2023-05-02T08:14:16.930Z,15.97
2023-05-02T08:16:46.053Z,15.77
2023-05-02T08:19:13.410Z,15.83
2023-05-02T08:21:40.419Z,15.90
2023-05-02T08:24:07.285Z,15.89
2023-05-02T08:26:34.225Z,15.90
2023-05-02T08:31:42.345Z,16.16
2023-05-02T08:34:09.353Z,16.24
2023-05-02T08:36:37.489Z,16.29
2023-05-02T08:39:04.449Z,16.32
2023-05-02T08:41:31.692Z,16.33
2023-05-02T08:43:58.555Z,16.31
2023-05-02T08:46:26.851Z,16.30
2023-05-02T08:48:59.225Z,16.30
2023-05-02T08:51:26.300Z,16.28
2023-05-02T08:53:53.068Z,16.04
2023-05-02T08:56:19.860Z,16.03
2023-05-02T08:58:46.910Z,16.21
2023-05-02T09:01:15.604Z,16.31
2023-05-02T09:03:46.481Z,16.40
2023-05-02T09:06:14.368Z,16.44
2023-05-02T09:08:41.691Z,16.43
2023-05-02T09:11:12.112Z,16.46
2023-05-02T09:13:46.400Z,16.41
2023-05-02T09:16:23.055Z,16.40
2023-05-02T09:18:51.182Z,16.55
2023-05-02T09:21:21.240Z,16.65
2023-05-02T09:23:49.471Z,16.79
2023-05-02T09:26:35.044Z,16.92
2023-05-02T09:29:02.927Z,16.95
2023-05-02T09:31:54.321Z,16.89
2023-05-02T09:34:17.614Z,16.81
2023-05-02T09:36:45.705Z,16.78
2023-05-02T09:39:13.949Z,16.77
2023-05-02T09:41:42.047Z,16.70
2023-05-02T09:44:12.722Z,16.63
2023-05-02T09:46:40.588Z,16.60
2023-05-02T09:49:08.202Z,16.63
2023-05-02T09:51:35.034Z,16.61
2023-05-02T09:54:01.938Z,16.55
2023-05-02T09:56:29.104Z,16.49
2023-05-02T09:59:15.522Z,16.44
2023-05-02T10:01:42.518Z,16.34
2023-05-02T10:04:16.542Z,16.29
2023-05-02T10:06:46.996Z,16.32
2023-05-02T10:09:18.183Z,16.32
2023-05-02T10:11:46.680Z,16.24
2023-05-02T10:14:13.527Z,16.18
2023-05-02T10:16:45.288Z,16.13
2023-05-02T10:19:12.350Z,16.03
2023-05-02T10:21:39.186Z,15.95
2023-05-02T10:24:06.298Z,15.91
2023-05-02T10:26:34.429Z,15.97
2023-05-02T10:29:01.859Z,15.98
2023-05-02T10:31:30.776Z,15.96
2023-05-02T10:33:57.745Z,15.91
2023-05-02T10:36:24.629Z,15.91
2023-05-02T10:38:51.526Z,15.94
2023-05-02T10:41:26.551Z,15.98
2023-05-02T10:43:53.416Z,15.99
2023-05-02T10:46:29.909Z,16.02
2023-05-02T10:49:09.105Z,15.98
2023-05-02T10:51:36.569Z,15.91
2023-05-02T10:54:21.952Z,15.87
2023-05-02T10:57:04.529Z,15.83
2023-05-02T10:59:31.407Z,15.79
2023-05-02T11:01:58.644Z,15.84
2023-05-02T11:04:25.602Z,15.85
2023-05-02T11:07:02.479Z,15.74
2023-05-02T11:09:29.691Z,15.69
2023-05-02T11:11:57.398Z,15.79
2023-05-02T11:14:33.975Z,15.84
2023-05-02T11:17:07.068Z,15.83
2023-05-02T11:19:46.356Z,15.84
2023-05-02T11:22:31.585Z,15.86
2023-05-02T11:24:58.514Z,15.91
2023-05-02T11:27:32.314Z,15.90
2023-05-02T11:30:02.557Z,15.80
2023-05-02T11:32:48.891Z,15.77
2023-05-02T11:35:22.994Z,15.81
2023-05-02T11:37:56.652Z,15.86
2023-05-02T11:40:23.911Z,15.86
2023-05-02T11:42:50.795Z,15.82
2023-05-02T11:45:18.742Z,15.78
2023-05-02T11:47:48.646Z,15.76
2023-05-02T11:50:15.715Z,15.80
2023-05-02T11:52:43.253Z,15.82
2023-05-02T11:55:15.075Z,15.82
2023-05-02T11:57:43.133Z,15.78
2023-05-02T12:00:11.492Z,15.78
2023-05-02T12:02:45.553Z,15.78
2023-05-02T12:05:13.662Z,15.81
2023-05-02T12:07:40.762Z,15.83
2023-05-02T12:10:08.108Z,15.83
2023-05-02T12:12:35.121Z,15.84
2023-05-02T12:15:08.734Z,15.85
2023-05-02T12:17:42.601Z,15.87
2023-05-02T12:20:09.933Z,15.87
2023-05-02T12:22:36.973Z,15.84
2023-05-02T12:25:05.069Z,15.79
2023-05-02T12:27:35.482Z,15.72
2023-05-02T12:30:02.806Z,15.71
2023-05-02T12:32:31.162Z,15.73
2023-05-02T12:34:58.694Z,15.76
2023-05-02T12:37:26.174Z,15.77
2023-05-02T12:39:53.637Z,15.76
2023-05-02T12:42:20.969Z,15.73
2023-05-02T12:44:49.279Z,15.73
2023-05-02T12:47:16.562Z,15.78
2023-05-02T12:49:50.361Z,15.81
2023-05-02T12:52:21.160Z,15.83
2023-05-02T12:54:48.622Z,15.84
2023-05-02T12:57:25.185Z,15.84
2023-05-02T12:59:53.172Z,15.86
2023-05-02T13:02:21.080Z,15.89
2023-05-02T13:04:47.913Z,15.90
2023-05-02T13:07:14.732Z,15.92
2023-05-02T13:09:41.703Z,15.92
2023-05-02T13:12:08.557Z,15.88
2023-05-02T13:14:35.404Z,15.82
2023-05-02T13:17:02.683Z,15.79
2023-05-02T13:19:31.540Z,15.75
2023-05-02T13:21:58.901Z,15.70
2023-05-02T13:24:25.935Z,15.69
2023-05-02T13:26:52.786Z,15.69
2023-05-02T13:29:19.629Z,15.69
2023-05-02T13:31:46.489Z,15.71
2023-05-02T13:34:13.327Z,15.72
2023-05-02T13:36:46.410Z,15.74
2023-05-02T13:39:14.130Z,15.73
2023-05-02T13:41:41.680Z,15.73
2023-05-02T13:44:09.657Z,15.72
2023-05-02T13:46:38.019Z,15.73
2023-05-02T13:49:05.425Z,15.75
2023-05-02T13:51:32.643Z,15.74
2023-05-02T13:53:59.784Z,15.71
2023-05-02T13:56:27.042Z,15.68
2023-05-02T13:58:54.101Z,15.66
2023-05-02T14:01:21.108Z,15.66
2023-05-02T14:03:48.216Z,15.63
2023-05-02T14:06:15.207Z,15.61
2023-05-02T14:08:42.180Z,15.57
2023-05-02T14:11:08.985Z,15.55
2023-05-02T14:13:35.796Z,15.55
2023-05-02T14:16:02.765Z,15.55
2023-05-02T14:18:29.604Z,15.56
2023-05-02T14:21:00.190Z,15.59
2023-05-02T14:23:30.129Z,15.58
2023-05-02T14:25:57.132Z,15.55
2023-05-02T14:28:23.869Z,15.53
2023-05-02T14:30:51.098Z,15.54
2023-05-02T14:33:17.949Z,15.53
2023-05-02T14:35:44.739Z,15.51
2023-05-02T14:38:11.762Z,15.49
2023-05-02T14:40:38.620Z,15.46
2023-05-02T14:43:07.030Z,15.44
2023-05-02T14:45:34.028Z,15.43
2023-05-02T14:48:01.135Z,15.40
2023-05-02T14:50:28.043Z,15.38
2023-05-02T14:52:54.864Z,15.36
2023-05-02T14:55:21.671Z,15.33
2023-05-02T14:57:48.442Z,15.31
2023-05-02T15:00:16.467Z,15.30
2023-05-02T15:02:43.339Z,15.28
2023-05-02T15:05:12.647Z,15.27
2023-05-02T15:07:39.864Z,15.25
2023-05-02T15:10:07.129Z,15.24
2023-05-02T15:12:34.108Z,15.23
2023-05-02T15:15:01.045Z,15.21
2023-05-02T15:17:27.856Z,15.20
2023-05-02T15:19:57.017Z,15.18
2023-05-02T15:22:26.266Z,15.16
2023-05-02T15:24:53.141Z,15.15
2023-05-02T15:27:19.980Z,15.15
2023-05-02T15:29:46.824Z,15.14
2023-05-02T15:32:13.662Z,15.12
2023-05-02T15:34:40.617Z,15.09
2023-05-02T15:37:08.282Z,15.06
2023-05-02T15:39:35.125Z,15.05
2023-05-02T15:42:05.153Z,15.03
2023-05-02T15:44:38.240Z,15.01
2023-05-02T15:47:05.076Z,14.99
2023-05-02T15:49:33.523Z,14.96
2023-05-02T15:52:01.758Z,14.94
2023-05-02T15:54:28.713Z,14.91
2023-05-02T15:56:55.588Z,14.88
2023-05-02T15:59:22.398Z,14.83
2023-05-02T16:01:49.515Z,14.81
2023-05-02T16:04:16.542Z,14.78
2023-05-02T16:06:43.474Z,14.76
2023-05-02T16:09:10.866Z,14.74
2023-05-02T16:11:37.669Z,14.70
2023-05-02T16:14:04.512Z,14.67
2023-05-02T16:16:31.365Z,14.63
2023-05-02T16:18:58.484Z,14.60
2023-05-02T16:21:25.979Z,14.56
2023-05-02T16:23:53.060Z,14.53
2023-05-02T16:26:21.022Z,14.49
2023-05-02T16:28:47.989Z,14.46
2023-05-02T16:31:15.331Z,14.41
2023-05-02T16:33:43.082Z,14.38
2023-05-02T16:36:10.278Z,14.34
2023-05-02T16:38:37.074Z,14.30
2023-05-02T16:41:05.125Z,14.24
2023-05-02T16:43:32.120Z,14.19
2023-05-02T16:46:00.577Z,14.16
2023-05-02T16:48:27.402Z,14.11
2023-05-02T16:50:54.294Z,14.07
2023-05-02T16:53:21.119Z,14.03
2023-05-02T16:55:48.007Z,13.98
2023-05-02T16:58:14.830Z,13.92
2023-05-02T17:00:41.724Z,13.86
2023-05-02T17:03:08.773Z,13.81
2023-05-02T17:05:35.822Z,13.76
2023-05-02T17:08:02.751Z,13.71
2023-05-02T17:10:29.594Z,13.67
2023-05-02T17:12:58.589Z,13.62
2023-05-02T17:15:25.747Z,13.58
2023-05-02T17:17:52.677Z,13.54
2023-05-02T17:20:20.519Z,13.49
2023-05-02T17:22:47.582Z,13.43
2023-05-02T17:25:14.573Z,13.40
2023-05-02T17:27:42.031Z,13.36
2023-05-02T17:30:09.595Z,13.32
2023-05-02T17:32:37.900Z,13.27
2023-05-02T17:35:05.198Z,13.21
2023-05-02T17:37:33.006Z,13.15
2023-05-02T17:40:02.396Z,13.11
2023-05-02T17:42:29.436Z,13.05
2023-05-02T17:44:56.416Z,12.99
2023-05-02T17:47:23.270Z,12.93
2023-05-02T17:49:51.386Z,12.86
2023-05-02T17:52:18.297Z,12.82
2023-05-02T17:54:45.858Z,12.78
2023-05-02T17:57:14.670Z,12.75
2023-05-02T17:59:41.811Z,12.72
2023-05-02T18:02:10.263Z,12.69
2023-05-02T18:04:37.558Z,12.65
2023-05-02T18:07:05.926Z,12.62
2023-05-02T18:09:33.188Z,12.58
2023-05-02T18:12:00.766Z,12.55
2023-05-02T18:14:28.251Z,12.52
2023-05-02T18:16:55.001Z,12.49
2023-05-02T18:19:23.160Z,12.45
2023-05-02T18:21:49.937Z,12.41
2023-05-02T18:24:16.915Z,12.38
2023-05-02T18:26:44.112Z,12.35
2023-05-02T18:29:10.948Z,12.32
2023-05-02T18:31:40.454Z,12.29
2023-05-02T18:34:07.720Z,12.27
2023-05-02T18:36:34.620Z,12.24
2023-05-02T18:39:01.510Z,12.23
2023-05-02T18:41:28.358Z,12.22
2023-05-02T18:43:55.148Z,12.22
2023-05-02T18:46:22.002Z,12.20
2023-05-02T18:48:49.024Z,12.17
2023-05-02T18:51:16.289Z,12.14
2023-05-02T18:53:43.092Z,12.12
2023-05-02T18:56:14.584Z,12.11
2023-05-02T18:58:42.230Z,12.10
2023-05-02T19:01:15.570Z,12.07
2023-05-02T19:03:46.257Z,12.04
2023-05-02T19:06:13.812Z,12.00
2023-05-02T19:08:40.750Z,11.96
2023-05-02T19:11:07.600Z,11.94
2023-05-02T19:13:34.585Z,11.91
2023-05-02T19:16:01.436Z,11.87
2023-05-02T19:18:28.454Z,11.83
2023-05-02T19:20:55.534Z,11.79
2023-05-02T19:23:22.374Z,11.74
2023-05-02T19:25:49.645Z,11.71
2023-05-02T19:28:17.329Z,11.68
2023-05-02T19:30:44.181Z,11.65
2023-05-02T19:33:11.010Z,11.62
2023-05-02T19:35:37.905Z,11.61
2023-05-02T19:38:04.822Z,11.60
2023-05-02T19:40:31.666Z,11.57
2023-05-02T19:42:58.493Z,11.53
2023-05-02T19:45:25.264Z,11.52
2023-05-02T19:47:52.769Z,11.51
2023-05-02T19:50:19.744Z,11.48
2023-05-02T19:52:46.536Z,11.41
2023-05-02T19:55:13.713Z,11.36
2023-05-02T19:57:41.523Z,11.33
2023-05-02T20:00:08.660Z,11.30
2023-05-02T20:02:39.413Z,11.27
2023-05-02T20:05:06.654Z,11.24
2023-05-02T20:07:33.435Z,11.20
2023-05-02T20:10:00.545Z,11.18
2023-05-02T20:12:27.629Z,11.16
2023-05-02T20:14:55.016Z,11.12
2023-05-02T20:17:21.848Z,11.09
2023-05-02T20:19:48.610Z,11.05
2023-05-02T20:22:15.507Z,11.01
2023-05-02T20:24:42.304Z,10.98
2023-05-02T20:27:10.008Z,10.96
2023-05-02T20:29:36.817Z,10.96
2023-05-02T20:32:03.770Z,10.91
2023-05-02T20:34:30.745Z,10.86
2023-05-02T20:36:58.679Z,10.84
2023-05-02T20:39:26.028Z,10.80
2023-05-02T20:41:52.976Z,10.77
2023-05-02T20:44:22.687Z,10.74
2023-05-02T20:46:51.612Z,10.72
2023-05-02T20:49:18.527Z,10.68
2023-05-02T20:51:45.588Z,10.66
2023-05-02T20:54:12.358Z,10.63
2023-05-02T20:56:39.493Z,10.58
2023-05-02T20:59:06.367Z,10.53
2023-05-02T21:01:33.665Z,10.49
2023-05-02T21:04:01.060Z,10.46
2023-05-02T21:06:28.156Z,10.44
2023-05-02T21:08:56.792Z,10.45
2023-05-02T21:11:23.856Z,10.45
2023-05-02T21:13:50.903Z,10.43
2023-05-02T21:16:18.251Z,10.39
2023-05-02T21:18:45.861Z,10.34
2023-05-02T21:21:12.970Z,10.30
2023-05-02T21:23:39.732Z,10.21
2023-05-02T21:26:06.534Z,10.15
2023-05-02T21:28:33.393Z,10.16
2023-05-02T21:31:01.417Z,10.17
2023-05-02T21:33:28.229Z,10.17
2023-05-02T21:35:58.279Z,10.17
2023-05-02T21:38:28.188Z,10.11
2023-05-02T21:40:55.044Z,10.09
2023-05-02T21:43:21.890Z,10.08
2023-05-02T21:45:49.177Z,10.08
2023-05-02T21:48:16.297Z,10.08
2023-05-02T21:50:43.257Z,10.04
2023-05-02T21:53:10.202Z,10.02
2023-05-02T21:55:37.871Z,10.00
2023-05-02T21:58:04.716Z,9.98
2023-05-02T22:00:32.630Z,9.95
2023-05-02T22:03:01.762Z,9.94
2023-05-02T22:05:28.739Z,9.93
2023-05-02T22:07:56.315Z,9.90
2023-05-02T22:10:23.151Z,9.87
2023-05-02T22:12:50.001Z,9.84
2023-05-02T22:15:16.803Z,9.82
2023-05-02T22:17:46.207Z,9.80
2023-05-02T22:20:13.276Z,9.77
2023-05-02T22:22:40.606Z,9.69
2023-05-02T22:25:07.975Z,9.62
2023-05-02T22:27:34.869Z,9.59
2023-05-02T22:30:02.536Z,9.56
2023-05-02T22:32:29.624Z,9.53
2023-05-02T22:34:56.413Z,9.49
2023-05-02T22:37:23.335Z,9.44
2023-05-02T22:39:50.242Z,9.40
2023-05-02T22:42:17.196Z,9.34
2023-05-02T22:44:53.582Z,9.30
2023-05-02T22:47:25.385Z,9.23
2023-05-02T22:49:52.829Z,9.15
2023-05-02T22:52:20.928Z,9.10
2023-05-02T22:54:47.813Z,9.08
2023-05-02T22:57:14.616Z,9.05
2023-05-02T22:59:41.424Z,8.99
2023-05-02T23:02:10.427Z,8.93
2023-05-02T23:04:37.397Z,8.88
2023-05-02T23:07:04.299Z,8.81
2023-05-02T23:09:31.250Z,8.74
2023-05-02T23:11:58.105Z,8.70
2023-05-02T23:14:24.946Z,8.70
2023-05-02T23:16:53.829Z,8.70
2023-05-02T23:19:20.790Z,8.67
2023-05-02T23:21:47.599Z,8.64
2023-05-02T23:24:14.626Z,8.59
2023-05-02T23:26:41.439Z,8.54
2023-05-02T23:29:08.475Z,8.51
2023-05-02T23:31:35.492Z,8.48
2023-05-02T23:34:02.395Z,8.48
2023-05-02T23:36:29.246Z,8.49
2023-05-02T23:38:56.084Z,8.51
2023-05-02T23:41:23.138Z,8.57
2023-05-02T23:43:49.929Z,8.62
2023-05-02T23:46:16.803Z,8.65
2023-05-02T23:48:43.684Z,8.69
2023-05-02T23:51:10.474Z,8.73
2023-05-02T23:53:37.381Z,8.73
2023-05-02T23:56:04.431Z,8.73
2023-05-02T23:58:31.534Z,8.70
